createdAt,value
2023-05-16T00:03:01.186Z,99.90
2023-05-16T02:21:51.648Z,99.90
2023-05-16T03:10:31.393Z,98.20
2023-05-16T03:13:05.506Z,98.10
2023-05-16T03:15:40.595Z,98.00
2023-05-16T03:18:17.204Z,98.30
2023-05-16T03:20:55.321Z,98.70
2023-05-16T03:23:23.812Z,98.90
2023-05-16T03:26:01.535Z,99.00
2023-05-16T03:28:32.615Z,98.90
2023-05-16T03:31:01.588Z,98.70
2023-05-16T03:33:30.480Z,98.80
2023-05-16T03:35:59.550Z,98.70
2023-05-16T03:38:35.150Z,98.00
2023-05-16T03:41:05.991Z,97.90
2023-05-16T03:43:40.675Z,98.10
2023-05-16T03:46:23.460Z,98.10
2023-05-16T03:48:53.110Z,98.00
2023-05-16T03:51:24.690Z,97.90
2023-05-16T03:53:54.957Z,97.90
2023-05-16T03:56:27.182Z,98.00
2023-05-16T03:58:56.740Z,97.90
2023-05-16T04:01:28.343Z,98.20
2023-05-16T04:03:58.185Z,98.10
2023-05-16T04:06:30.512Z,98.40
2023-05-16T04:09:02.259Z,98.10
2023-05-16T04:11:31.918Z,97.50
2023-05-16T04:14:05.875Z,97.20
2023-05-16T04:19:16.844Z,96.60
2023-05-16T04:21:48.374Z,97.20
2023-05-16T04:24:16.375Z,97.40
2023-05-16T04:29:31.168Z,97.20
2023-05-16T04:32:03.833Z,96.70
2023-05-16T04:34:32.321Z,96.20
2023-05-16T04:37:01.853Z,96.20
2023-05-16T04:39:39.400Z,96.60
2023-05-16T04:42:09.822Z,96.60
2023-05-16T04:44:39.462Z,97.00
2023-05-16T04:47:08.994Z,97.10
2023-05-16T04:49:37.314Z,97.70
2023-05-16T04:52:11.758Z,97.60
2023-05-16T04:54:42.223Z,97.50
2023-05-16T04:57:12.082Z,97.60
2023-05-16T04:59:46.696Z,97.70
2023-05-16T05:02:20.002Z,97.00
2023-05-16T05:04:49.029Z,97.30
2023-05-16T05:07:17.630Z,97.80
2023-05-16T05:09:55.748Z,97.80
2023-05-16T05:12:35.233Z,98.20
2023-05-16T05:15:03.274Z,98.90
2023-05-16T05:17:38.780Z,99.50
2023-05-16T05:20:07.331Z,98.90
2023-05-16T05:22:36.204Z,99.00
2023-05-16T05:25:23.318Z,98.90
2023-05-16T05:27:59.489Z,98.40
2023-05-16T05:30:43.124Z,98.70
2023-05-16T05:33:23.098Z,98.60
2023-05-16T05:36:03.244Z,98.30
2023-05-16T05:38:54.800Z,98.00
2023-05-16T05:41:28.451Z,98.10
2023-05-16T05:43:56.929Z,98.00
2023-05-16T05:46:27.499Z,97.60
2023-05-16T05:48:55.380Z,97.80
2023-05-16T05:51:23.652Z,97.30
2023-05-16T05:53:57.141Z,96.10
2023-05-16T05:56:40.974Z,95.80
2023-05-16T05:59:16.450Z,95.70
2023-05-16T06:01:54.003Z,95.80
2023-05-16T06:04:22.414Z,95.30
2023-05-16T06:06:57.827Z,95.60
2023-05-16T06:09:26.426Z,95.30
2023-05-16T06:12:00.353Z,96.40
2023-05-16T06:14:32.349Z,95.10
2023-05-16T06:17:04.068Z,93.10
2023-05-16T06:19:35.846Z,91.90
2023-05-16T06:22:28.877Z,90.30
2023-05-16T06:24:58.391Z,91.30
2023-05-16T06:27:30.638Z,91.50
2023-05-16T06:32:55.282Z,90.70
2023-05-16T06:35:23.276Z,90.10
2023-05-16T06:37:54.670Z,90.50
2023-05-16T06:40:24.994Z,88.90
2023-05-16T06:42:58.923Z,88.60
2023-05-16T06:45:26.373Z,87.20
2023-05-16T06:47:56.538Z,89.20
2023-05-16T06:53:25.398Z,86.80
2023-05-16T06:56:05.457Z,86.40
2023-05-16T06:58:33.675Z,86.20
2023-05-16T07:01:07.324Z,86.20
2023-05-16T07:03:36.296Z,85.40
2023-05-16T07:06:07.954Z,84.50
2023-05-16T07:08:38.657Z,82.80
2023-05-16T07:11:21.556Z,82.40
2023-05-16T07:13:52.474Z,81.50
2023-05-16T07:16:34.406Z,81.90
2023-05-16T07:19:05.649Z,80.90
2023-05-16T07:21:55.608Z,81.30
2023-05-16T07:24:38.402Z,79.70
2023-05-16T07:27:09.693Z,80.20
2023-05-16T07:29:38.023Z,77.70
2023-05-16T07:32:08.418Z,79.40
2023-05-16T07:34:41.026Z,78.00
2023-05-16T07:37:13.774Z,76.90
2023-05-16T07:39:41.734Z,77.20
2023-05-16T07:42:10.838Z,79.10
2023-05-16T07:44:40.622Z,79.50
2023-05-16T07:49:56.169Z,76.40
2023-05-16T07:52:27.632Z,77.60
2023-05-16T07:55:03.147Z,79.10
2023-05-16T07:57:33.783Z,77.50
2023-05-16T08:00:02.640Z,75.70
2023-05-16T08:02:34.434Z,74.20
2023-05-16T08:05:15.278Z,71.40
2023-05-16T08:07:46.502Z,71.90
2023-05-16T08:10:13.902Z,73.40
2023-05-16T08:12:41.863Z,72.30
2023-05-16T08:15:28.204Z,70.40
2023-05-16T08:18:02.422Z,68.60
2023-05-16T08:20:32.261Z,71.00
2023-05-16T08:23:02.678Z,69.70
2023-05-16T08:25:33.459Z,67.90
2023-05-16T08:28:03.717Z,69.70
2023-05-16T08:30:30.886Z,72.00
2023-05-16T08:33:00.555Z,68.60
2023-05-16T08:35:33.461Z,66.80
2023-05-16T08:38:03.876Z,63.60
2023-05-16T08:40:31.729Z,61.60
2023-05-16T08:43:00.990Z,59.60
2023-05-16T08:45:32.685Z,57.20
2023-05-16T08:48:10.113Z,56.90
2023-05-16T08:50:44.879Z,55.40
2023-05-16T08:53:15.558Z,57.00
2023-05-16T08:55:46.631Z,57.70
2023-05-16T08:58:14.990Z,53.20
2023-05-16T09:00:47.697Z,52.90
2023-05-16T09:03:21.177Z,55.30
2023-05-16T09:05:48.534Z,54.20
2023-05-16T09:08:19.105Z,54.70
2023-05-16T09:10:48.106Z,50.40
2023-05-16T09:13:18.044Z,54.30
2023-05-16T09:16:01.086Z,52.90
2023-05-16T09:18:32.786Z,52.90
2023-05-16T09:21:08.063Z,54.70
2023-05-16T09:23:37.435Z,50.10
2023-05-16T09:26:08.225Z,49.10
2023-05-16T09:28:44.051Z,52.00
2023-05-16T09:31:35.293Z,53.70
2023-05-16T09:34:04.905Z,49.00
2023-05-16T09:36:34.848Z,50.80
2023-05-16T09:39:04.854Z,47.30
2023-05-16T09:41:38.424Z,47.20
2023-05-16T09:44:31.501Z,48.50
2023-05-16T09:47:00.540Z,41.20
2023-05-16T09:49:28.632Z,38.10
2023-05-16T09:51:59.501Z,37.30
2023-05-16T09:54:40.519Z,40.20
2023-05-16T09:57:07.755Z,35.30
2023-05-16T09:59:40.889Z,38.30
2023-05-16T10:02:11.152Z,36.30
2023-05-16T10:04:46.608Z,35.50
2023-05-16T10:07:16.086Z,33.50
2023-05-16T10:09:50.254Z,33.00
2023-05-16T10:15:13.438Z,33.20
2023-05-16T10:17:45.989Z,34.60
2023-05-16T10:20:29.646Z,34.10
2023-05-16T10:22:58.518Z,35.30
2023-05-16T10:25:43.140Z,38.00
2023-05-16T10:28:25.810Z,33.70
2023-05-16T10:31:02.813Z,32.60
2023-05-16T10:33:37.810Z,33.50
2023-05-16T10:36:13.606Z,36.40
2023-05-16T10:38:44.588Z,30.30
2023-05-16T10:41:12.271Z,30.10
2023-05-16T10:43:43.093Z,29.20
2023-05-16T10:46:17.970Z,32.50
2023-05-16T10:48:47.965Z,32.50
2023-05-16T10:51:22.801Z,26.80
2023-05-16T10:54:00.663Z,29.70
2023-05-16T10:56:28.740Z,30.70
2023-05-16T10:58:59.717Z,32.40
2023-05-16T11:01:36.954Z,32.40
2023-05-16T11:04:11.865Z,35.80
2023-05-16T11:06:43.524Z,32.50
2023-05-16T11:09:28.202Z,30.80
2023-05-16T11:12:06.555Z,31.40
2023-05-16T11:14:38.208Z,31.40
2023-05-16T11:17:19.666Z,31.20
2023-05-16T11:19:59.768Z,33.50
2023-05-16T11:22:50.455Z,32.20
2023-05-16T11:25:41.792Z,32.00
2023-05-16T11:28:16.456Z,28.00
2023-05-16T11:31:00.059Z,25.80
2023-05-16T11:33:38.573Z,24.40
2023-05-16T11:36:16.345Z,23.90
2023-05-16T11:42:10.815Z,27.50
2023-05-16T11:44:53.952Z,23.20
2023-05-16T11:47:24.660Z,24.30
2023-05-16T11:50:10.616Z,24.60
2023-05-16T11:52:38.586Z,27.10
2023-05-16T11:55:07.338Z,27.70
2023-05-16T11:57:34.620Z,24.30
2023-05-16T12:09:42.427Z,22.20
2023-05-16T12:12:43.197Z,25.70
2023-05-16T12:15:12.452Z,26.60
2023-05-16T12:18:02.495Z,25.50
2023-05-16T12:20:29.741Z,25.30
2023-05-16T12:23:10.036Z,26.80
2023-05-16T12:25:47.308Z,26.80
2023-05-16T12:28:15.299Z,25.50
2023-05-16T12:30:44.640Z,26.80
2023-05-16T12:36:01.793Z,26.30
2023-05-16T12:38:32.493Z,21.00
2023-05-16T12:41:05.215Z,18.80
2023-05-16T12:43:44.853Z,20.40
2023-05-16T12:46:25.155Z,21.50
2023-05-16T12:49:08.372Z,23.40
2023-05-16T12:51:36.238Z,24.80
2023-05-16T12:57:34.704Z,29.00
2023-05-16T13:00:13.940Z,23.20
2023-05-16T13:03:00.230Z,19.90
2023-05-16T13:08:24.842Z,26.30
2023-05-16T13:11:01.485Z,25.20
2023-05-16T13:16:53.541Z,22.70
2023-05-16T13:19:24.669Z,20.50
2023-05-16T13:21:51.653Z,22.40
2023-05-16T13:24:18.571Z,23.20
2023-05-16T13:26:53.472Z,26.80
2023-05-16T13:29:23.499Z,26.00
2023-05-16T13:31:50.638Z,26.00
2023-05-16T13:34:17.983Z,26.20
2023-05-16T13:36:53.787Z,24.50
2023-05-16T13:39:29.946Z,21.50
2023-05-16T13:41:57.334Z,22.90
2023-05-16T13:44:47.340Z,22.50
2023-05-16T13:47:15.749Z,23.30
2023-05-16T13:49:42.795Z,20.20
2023-05-16T13:52:10.482Z,24.40
2023-05-16T13:54:40.496Z,21.10
2023-05-16T13:57:09.838Z,24.00
2023-05-16T14:02:44.082Z,25.00
2023-05-16T14:05:11.020Z,21.60
2023-05-16T14:07:37.761Z,22.00
2023-05-16T14:10:07.076Z,20.70
2023-05-16T14:12:33.979Z,22.70
2023-05-16T14:15:00.808Z,22.50
2023-05-16T14:17:27.529Z,23.50
2023-05-16T14:19:54.189Z,24.10
2023-05-16T14:25:58.430Z,23.40
2023-05-16T14:28:46.875Z,24.70
2023-05-16T14:42:12.830Z,27.30
2023-05-16T15:05:30.303Z,18.60
2023-05-16T15:07:57.118Z,19.70
2023-05-16T15:10:24.289Z,21.10
2023-05-16T15:21:44.072Z,22.50
2023-05-16T15:27:01.872Z,23.00
2023-05-16T15:29:28.653Z,24.40
2023-05-16T15:31:55.468Z,24.70
2023-05-16T15:34:25.394Z,25.10
2023-05-16T15:59:34.624Z,29.70
2023-05-16T16:02:05.295Z,32.30
2023-05-16T16:04:32.233Z,28.80
2023-05-16T16:06:59.077Z,30.90
2023-05-16T16:09:25.829Z,25.40
2023-05-16T16:11:56.381Z,26.60
2023-05-16T16:14:24.428Z,25.10
2023-05-16T16:16:51.722Z,24.20
2023-05-16T16:19:24.061Z,22.90
2023-05-16T16:21:52.053Z,22.00
2023-05-16T16:28:02.205Z,25.90
2023-05-16T16:30:29.032Z,25.70
2023-05-16T16:32:56.400Z,26.90
2023-05-16T16:48:12.814Z,28.30
2023-05-16T16:54:04.133Z,28.90
2023-05-16T16:59:27.345Z,28.40
2023-05-16T17:01:54.196Z,27.90
2023-05-16T17:04:21.258Z,27.20
2023-05-16T17:06:48.844Z,25.90
2023-05-16T17:09:18.022Z,25.80
2023-05-16T17:11:46.671Z,25.50
2023-05-16T17:14:15.412Z,27.20
2023-05-16T17:16:42.640Z,28.50
2023-05-16T17:19:10.191Z,28.90
2023-05-16T17:21:40.357Z,29.40
2023-05-16T17:24:07.989Z,30.90
2023-05-16T17:26:36.981Z,30.00
2023-05-16T17:29:07.114Z,30.60
2023-05-16T17:31:34.046Z,31.10
2023-05-16T17:34:00.975Z,31.00
2023-05-16T17:36:27.853Z,30.80
2023-05-16T17:39:08.167Z,31.50
2023-05-16T17:41:43.637Z,31.90
2023-05-16T17:44:24.590Z,33.00
2023-05-16T17:46:52.845Z,32.00
2023-05-16T17:49:26.686Z,32.60
2023-05-16T17:52:01.109Z,33.60
2023-05-16T18:06:38.044Z,35.80
2023-05-16T18:09:10.460Z,36.90
2023-05-16T18:11:40.795Z,36.60
2023-05-16T18:14:12.858Z,37.10
2023-05-16T18:16:40.122Z,37.90
2023-05-16T18:19:08.757Z,38.30
2023-05-16T18:21:36.884Z,37.50
2023-05-16T18:24:03.984Z,38.50
2023-05-16T18:26:31.408Z,38.20
2023-05-16T18:28:58.758Z,38.50
2023-05-16T18:31:25.601Z,38.30
2023-05-16T18:33:52.445Z,39.30
2023-05-16T18:36:19.250Z,40.30
2023-05-16T18:38:46.204Z,40.60
2023-05-16T18:41:13.164Z,41.90
2023-05-16T18:43:40.012Z,41.80
2023-05-16T18:46:07.019Z,42.00
2023-05-16T18:48:36.001Z,43.00
2023-05-16T18:51:03.427Z,42.90
2023-05-16T18:53:30.525Z,44.70
2023-05-16T18:55:57.394Z,43.40
2023-05-16T18:58:24.250Z,44.50
2023-05-16T19:00:51.458Z,44.10
2023-05-16T19:03:18.579Z,44.60
2023-05-16T19:05:46.098Z,46.50
2023-05-16T19:08:13.028Z,45.90
2023-05-16T19:10:41.857Z,46.00
2023-05-16T19:13:08.998Z,46.80
2023-05-16T19:15:37.106Z,47.30
2023-05-16T19:18:04.949Z,47.40
2023-05-16T19:20:33.478Z,48.60
2023-05-16T19:23:00.638Z,48.30
2023-05-16T19:25:28.140Z,49.60
2023-05-16T19:27:54.998Z,50.10
2023-05-16T19:30:21.886Z,50.20
2023-05-16T19:32:48.676Z,51.10
2023-05-16T19:35:15.620Z,52.20
2023-05-16T19:37:42.774Z,52.70
2023-05-16T19:40:09.894Z,53.40
2023-05-16T19:42:36.855Z,53.70
2023-05-16T19:45:04.270Z,53.80
2023-05-16T19:47:31.504Z,53.50
2023-05-16T19:49:58.526Z,53.40
2023-05-16T19:52:26.122Z,53.60
2023-05-16T19:54:53.275Z,53.30
2023-05-16T19:57:20.331Z,54.20
2023-05-16T19:59:47.448Z,54.40
2023-05-16T20:02:16.000Z,53.40
2023-05-16T20:04:43.263Z,53.60
2023-05-16T20:07:10.110Z,54.60
2023-05-16T20:09:37.046Z,55.30
2023-05-16T20:12:04.341Z,55.60
2023-05-16T20:14:31.336Z,56.80
2023-05-16T20:16:58.775Z,56.50
2023-05-16T20:19:25.807Z,57.00
2023-05-16T20:21:52.727Z,57.10
2023-05-16T20:24:19.541Z,57.90
2023-05-16T20:26:46.389Z,58.60
2023-05-16T20:29:13.215Z,58.60
2023-05-16T20:31:42.703Z,58.80
2023-05-16T20:34:10.432Z,59.40
2023-05-16T20:36:37.337Z,60.90
2023-05-16T20:39:06.364Z,61.00
2023-05-16T20:41:33.108Z,62.30
2023-05-16T20:43:59.970Z,63.10
2023-05-16T20:46:26.806Z,63.80
2023-05-16T20:48:53.580Z,64.80
2023-05-16T20:51:20.713Z,65.50
2023-05-16T20:53:47.817Z,66.40
2023-05-16T20:56:14.654Z,66.50
2023-05-16T20:58:42.242Z,67.10
2023-05-16T21:01:09.365Z,68.20
2023-05-16T21:03:36.146Z,68.00
2023-05-16T21:06:02.897Z,69.00
2023-05-16T21:08:29.633Z,69.20
2023-05-16T21:10:56.366Z,69.30
2023-05-16T21:13:23.109Z,69.80
2023-05-16T21:15:50.052Z,70.00
2023-05-16T21:18:17.114Z,70.30
2023-05-16T21:20:43.974Z,71.70
2023-05-16T21:23:10.686Z,71.10
2023-05-16T21:25:37.675Z,71.30
2023-05-16T21:28:04.678Z,71.40
2023-05-16T21:30:31.449Z,73.20
2023-05-16T21:32:58.316Z,72.60
2023-05-16T21:35:25.256Z,73.20
2023-05-16T21:37:52.037Z,73.20
2023-05-16T21:40:24.846Z,73.50
2023-05-16T21:42:52.659Z,73.60
2023-05-16T21:45:19.528Z,73.80
2023-05-16T21:47:46.906Z,74.30
2023-05-16T21:50:13.790Z,75.70
2023-05-16T21:52:40.746Z,75.00
2023-05-16T21:55:08.424Z,74.90
2023-05-16T21:57:35.191Z,74.90
2023-05-16T22:00:06.581Z,74.90
2023-05-16T22:02:33.794Z,75.40
2023-05-16T22:05:00.876Z,75.90
2023-05-16T22:07:29.278Z,77.90
2023-05-16T22:09:56.888Z,77.90
2023-05-16T22:12:24.170Z,78.00
2023-05-16T22:14:51.562Z,78.70
2023-05-16T22:17:19.473Z,78.90
2023-05-16T22:19:46.989Z,78.50
2023-05-16T22:22:13.841Z,78.90
2023-05-16T22:24:40.724Z,79.10
2023-05-16T22:27:07.576Z,79.20
2023-05-16T22:29:38.260Z,79.50
2023-05-16T22:32:09.968Z,80.10
2023-05-16T22:34:40.513Z,80.50
2023-05-16T22:37:08.898Z,80.70
2023-05-16T22:39:35.831Z,81.10
2023-05-16T22:42:03.538Z,81.90
2023-05-16T22:44:30.466Z,82.30
2023-05-16T22:46:57.221Z,82.80
2023-05-16T22:49:24.070Z,83.10
2023-05-16T22:51:50.966Z,83.50
2023-05-16T22:54:17.787Z,84.10
2023-05-16T22:56:44.612Z,84.10
2023-05-16T22:59:11.404Z,84.40
2023-05-16T23:01:38.201Z,84.50
2023-05-16T23:04:05.305Z,85.20
2023-05-16T23:06:32.700Z,85.40
2023-05-16T23:09:04.596Z,85.80
2023-05-16T23:11:32.389Z,85.60
2023-05-16T23:13:59.114Z,86.00
2023-05-16T23:16:25.778Z,86.20
2023-05-16T23:18:52.676Z,85.90
2023-05-16T23:21:19.530Z,86.00
2023-05-16T23:23:46.770Z,86.40
2023-05-16T23:26:13.529Z,86.20
2023-05-16T23:28:40.348Z,86.10
2023-05-16T23:31:07.146Z,86.50
2023-05-16T23:33:33.955Z,86.70
2023-05-16T23:36:00.790Z,87.20
2023-05-16T23:38:27.716Z,87.40
2023-05-16T23:40:54.518Z,88.80
2023-05-16T23:43:21.398Z,88.80
2023-05-16T23:45:48.273Z,88.90
2023-05-16T23:48:15.151Z,89.00
2023-05-16T23:50:42.003Z,89.50
2023-05-16T23:53:08.825Z,89.50
2023-05-16T23:55:35.859Z,89.50
2023-05-16T23:58:02.630Z,89.40
